createdAt,value
2023-05-15T00:00:49.748Z,7.00
2023-05-15T00:03:29.524Z,4.50
2023-05-15T00:05:57.783Z,9.60
2023-05-15T00:08:25.818Z,7.70
2023-05-15T00:11:01.431Z,6.60
2023-05-15T00:13:30.405Z,7.70
2023-05-15T00:15:58.329Z,9.10
2023-05-15T00:18:26.250Z,8.80
2023-05-15T00:20:54.412Z,4.90
2023-05-15T00:23:22.565Z,5.30
2023-05-15T00:25:50.663Z,8.50
2023-05-15T00:28:18.529Z,7.60
2023-05-15T00:30:46.442Z,6.60
2023-05-15T00:33:14.339Z,7.10
2023-05-15T00:35:42.210Z,4.50
2023-05-15T00:38:10.070Z,7.60
2023-05-15T00:40:39.265Z,7.80
2023-05-15T00:43:08.640Z,9.80
2023-05-15T00:45:40.858Z,12.00
2023-05-15T00:48:10.747Z,9.20
2023-05-15T00:50:41.640Z,4.30
2023-05-15T00:53:09.909Z,7.10
2023-05-15T00:55:40.633Z,9.60
2023-05-15T00:58:10.949Z,4.60
2023-05-15T01:00:39.145Z,9.10
2023-05-15T01:03:07.206Z,8.60
2023-05-15T01:05:35.421Z,13.50
2023-05-15T01:08:11.945Z,12.80
2023-05-15T01:10:40.385Z,9.90
2023-05-15T01:13:10.138Z,6.80
2023-05-15T01:15:37.890Z,6.70
2023-05-15T01:18:07.308Z,6.80
2023-05-15T01:21:05.802Z,5.60
2023-05-15T01:23:52.205Z,5.80
2023-05-15T01:26:31.955Z,8.90
2023-05-15T01:29:07.389Z,3.70
2023-05-15T01:31:38.646Z,6.60
2023-05-15T01:34:10.136Z,11.20
2023-05-15T01:36:43.264Z,7.40
2023-05-15T01:39:11.431Z,5.40
2023-05-15T01:41:46.805Z,9.50
2023-05-15T01:44:37.834Z,7.20
2023-05-15T01:49:49.263Z,5.20
2023-05-15T01:52:29.272Z,5.20
2023-05-15T01:54:58.650Z,8.90
2023-05-15T01:57:28.430Z,5.80
2023-05-15T01:59:59.478Z,7.70
2023-05-15T02:02:29.236Z,6.40
2023-05-15T02:04:58.582Z,6.60
2023-05-15T02:07:27.566Z,7.30
2023-05-15T02:09:56.543Z,8.90
2023-05-15T02:12:24.720Z,10.30
2023-05-15T02:14:53.393Z,6.50
2023-05-15T02:17:22.896Z,9.20
2023-05-15T02:19:51.163Z,5.00
2023-05-15T02:22:19.064Z,6.50
2023-05-15T02:24:46.873Z,10.50
2023-05-15T02:27:24.556Z,7.50
2023-05-15T02:29:58.523Z,5.20
2023-05-15T02:33:14.853Z,7.20
2023-05-15T02:35:53.107Z,9.40
2023-05-15T02:38:28.360Z,4.60
2023-05-15T02:40:58.078Z,5.40
2023-05-15T02:43:26.834Z,7.30
2023-05-15T02:45:57.171Z,8.30
2023-05-15T02:48:25.868Z,4.80
2023-05-15T02:50:54.318Z,4.50
2023-05-15T02:53:22.271Z,4.90
2023-05-15T02:55:50.251Z,7.60
2023-05-15T02:58:18.455Z,8.80
2023-05-15T03:00:46.387Z,7.20
2023-05-15T03:03:14.275Z,5.60
2023-05-15T03:05:42.260Z,4.90
2023-05-15T03:08:10.171Z,10.40
2023-05-15T03:10:37.942Z,9.00
2023-05-15T03:13:05.874Z,8.40
2023-05-15T03:15:33.734Z,9.40
2023-05-15T03:18:01.744Z,6.60
2023-05-15T03:20:29.573Z,7.10
2023-05-15T03:22:57.573Z,4.40
2023-05-15T03:25:26.112Z,5.80
2023-05-15T03:27:54.530Z,9.80
2023-05-15T03:30:22.557Z,7.50
2023-05-15T03:32:50.609Z,9.30
2023-05-15T03:35:18.801Z,12.70
2023-05-15T03:37:46.819Z,12.50
2023-05-15T03:40:14.720Z,9.20
2023-05-15T03:42:42.487Z,9.20
2023-05-15T03:45:10.353Z,7.90
2023-05-15T03:47:38.596Z,8.80
2023-05-15T03:50:06.811Z,6.20
2023-05-15T03:52:34.868Z,5.90
2023-05-15T03:55:02.975Z,7.60
2023-05-15T03:57:32.188Z,7.00
2023-05-15T04:00:01.369Z,5.20
2023-05-15T04:02:29.637Z,9.70
2023-05-15T04:04:57.893Z,9.00
2023-05-15T04:07:25.899Z,10.20
2023-05-15T04:09:53.804Z,8.20
2023-05-15T04:12:22.561Z,13.80
2023-05-15T04:14:50.489Z,13.50
2023-05-15T04:17:18.516Z,10.10
2023-05-15T04:19:48.064Z,18.60
2023-05-15T04:22:16.068Z,8.90
2023-05-15T04:24:44.068Z,12.20
2023-05-15T04:27:14.484Z,16.70
2023-05-15T04:29:42.320Z,12.70
2023-05-15T04:32:10.381Z,55.00
2023-05-15T04:34:38.528Z,13.50
2023-05-15T04:37:07.126Z,12.70
2023-05-15T04:39:35.136Z,9.60
2023-05-15T04:42:03.476Z,12.20
2023-05-15T04:44:32.107Z,12.60
2023-05-15T04:47:00.060Z,14.20
2023-05-15T04:49:27.946Z,8.20
2023-05-15T04:51:55.851Z,10.40
2023-05-15T04:54:23.668Z,7.00
2023-05-15T04:56:51.484Z,12.20
2023-05-15T04:59:19.279Z,16.50
2023-05-15T05:01:47.276Z,9.60
2023-05-15T05:04:19.710Z,11.70
2023-05-15T05:06:47.491Z,11.40
2023-05-15T05:09:15.508Z,13.40
2023-05-15T05:11:46.133Z,12.80
2023-05-15T05:16:45.643Z,11.40
2023-05-15T05:19:13.762Z,13.30
2023-05-15T05:21:41.855Z,11.00
2023-05-15T05:24:09.867Z,12.40
2023-05-15T05:26:37.907Z,13.80
2023-05-15T05:29:05.803Z,11.20
2023-05-15T05:31:33.799Z,10.30
2023-05-15T05:34:01.717Z,11.40
2023-05-15T05:36:29.568Z,11.80
2023-05-15T05:38:57.328Z,12.50
2023-05-15T05:41:25.988Z,14.70
2023-05-15T05:43:53.805Z,10.10
2023-05-15T05:46:21.689Z,14.90
2023-05-15T05:48:49.469Z,10.90
2023-05-15T05:51:17.208Z,11.40
2023-05-15T05:53:45.100Z,8.80
2023-05-15T05:56:12.976Z,14.10
2023-05-15T05:58:40.960Z,12.10
2023-05-15T06:01:09.160Z,11.30
2023-05-15T06:03:38.790Z,13.30
2023-05-15T06:06:07.723Z,15.90
2023-05-15T06:08:35.665Z,12.20
2023-05-15T06:11:04.136Z,11.50
2023-05-15T06:13:32.456Z,8.70
2023-05-15T06:16:00.315Z,21.60
2023-05-15T06:18:28.163Z,14.90
2023-05-15T06:20:56.183Z,9.60
2023-05-15T06:23:24.522Z,14.60
2023-05-15T06:25:52.557Z,7.90
2023-05-15T06:28:20.567Z,10.30
2023-05-15T06:30:48.592Z,19.10
2023-05-15T06:33:16.586Z,10.70
2023-05-15T06:35:44.628Z,11.40
2023-05-15T06:38:12.511Z,16.70
2023-05-15T06:40:40.580Z,18.30
2023-05-15T06:43:08.701Z,12.30
2023-05-15T06:45:36.771Z,12.80
2023-05-15T06:48:04.737Z,13.20
2023-05-15T06:50:32.605Z,15.00
2023-05-15T06:53:01.294Z,10.20
2023-05-15T06:55:29.222Z,18.60
2023-05-15T06:57:57.226Z,16.50
2023-05-15T07:00:25.400Z,15.30
2023-05-15T07:02:53.257Z,21.50
2023-05-15T07:05:22.092Z,12.50
2023-05-15T07:07:50.079Z,15.50
2023-05-15T07:10:17.908Z,18.20
2023-05-15T07:12:46.081Z,10.20
2023-05-15T07:15:14.021Z,17.30
2023-05-15T07:17:41.970Z,21.40
2023-05-15T07:20:10.642Z,19.40
2023-05-15T07:22:51.984Z,19.10
2023-05-15T07:25:25.784Z,13.60
2023-05-15T07:27:54.077Z,11.60
2023-05-15T07:30:23.006Z,11.90
2023-05-15T07:32:51.237Z,10.20
2023-05-15T07:35:19.639Z,20.10
2023-05-15T07:37:47.773Z,13.30
2023-05-15T07:40:15.817Z,14.90
2023-05-15T07:42:45.073Z,13.60
2023-05-15T07:45:12.965Z,16.80
2023-05-15T07:47:48.102Z,8.60
2023-05-15T07:50:17.800Z,10.10
2023-05-15T07:52:46.113Z,11.20
2023-05-15T07:55:14.196Z,13.00
2023-05-15T07:57:42.472Z,10.40
2023-05-15T08:00:13.179Z,15.20
2023-05-15T08:02:46.339Z,7.60
2023-05-15T08:05:14.617Z,20.00
2023-05-15T08:07:42.703Z,16.00
2023-05-15T08:10:10.885Z,17.60
2023-05-15T08:12:38.900Z,13.70
2023-05-15T08:15:07.922Z,10.50
2023-05-15T08:17:35.901Z,9.40
2023-05-15T08:20:05.067Z,13.50
2023-05-15T08:22:32.952Z,8.30
2023-05-15T08:25:03.842Z,16.00
2023-05-15T08:27:32.474Z,11.60
2023-05-15T08:30:00.547Z,8.70
2023-05-15T08:32:28.516Z,13.50
2023-05-15T08:34:56.609Z,8.90
2023-05-15T08:37:24.480Z,8.60
2023-05-15T08:39:52.438Z,12.90
2023-05-15T08:42:49.531Z,12.40
2023-05-15T08:45:19.043Z,12.30
2023-05-15T08:47:47.570Z,13.50
2023-05-15T08:50:17.548Z,17.40
2023-05-15T08:52:46.888Z,12.60
2023-05-15T08:55:16.378Z,12.80
2023-05-15T08:57:45.226Z,11.30
2023-05-15T09:00:15.017Z,12.90
2023-05-15T09:02:43.268Z,13.30
2023-05-15T09:05:12.092Z,9.80
2023-05-15T09:07:44.942Z,9.20
2023-05-15T09:10:14.239Z,11.70
2023-05-15T09:12:47.046Z,7.40
2023-05-15T09:15:18.042Z,8.30
2023-05-15T09:17:46.283Z,8.70
2023-05-15T09:20:27.958Z,12.00
2023-05-15T09:22:57.075Z,6.00
2023-05-15T09:25:38.923Z,10.30
2023-05-15T09:28:09.589Z,9.50
2023-05-15T09:30:39.043Z,8.10
2023-05-15T09:33:07.251Z,7.50
2023-05-15T09:35:40.709Z,8.90
2023-05-15T09:38:11.669Z,10.50
2023-05-15T09:43:11.979Z,7.90
2023-05-15T09:45:39.980Z,10.50
2023-05-15T09:48:08.686Z,10.60
2023-05-15T09:50:38.925Z,13.50
2023-05-15T09:53:06.743Z,15.70
2023-05-15T09:55:36.338Z,11.20
2023-05-15T09:58:09.943Z,10.20
2023-05-15T10:00:48.839Z,8.80
2023-05-15T10:03:21.334Z,9.80
2023-05-15T10:05:49.308Z,11.20
2023-05-15T10:08:27.764Z,9.60
2023-05-15T10:11:00.672Z,12.70
2023-05-15T10:13:31.551Z,12.70
2023-05-15T10:16:02.233Z,9.60
2023-05-15T10:18:31.766Z,14.30
2023-05-15T10:21:04.195Z,10.10
2023-05-15T10:23:35.826Z,11.60
2023-05-15T10:26:11.256Z,15.90
2023-05-15T10:28:39.898Z,14.00
2023-05-15T10:31:09.712Z,11.60
2023-05-15T10:33:39.142Z,11.30
2023-05-15T10:36:08.657Z,12.30
2023-05-15T10:38:37.661Z,12.50
2023-05-15T10:41:16.490Z,13.30
2023-05-15T10:43:46.974Z,12.50
2023-05-15T10:46:16.297Z,13.80
2023-05-15T10:48:44.368Z,11.60
2023-05-15T10:51:25.193Z,11.20
2023-05-15T10:53:53.861Z,11.60
2023-05-15T10:56:26.925Z,15.50
2023-05-15T10:58:55.779Z,15.10
2023-05-15T11:01:32.256Z,11.70
2023-05-15T11:04:17.964Z,14.40
2023-05-15T11:06:50.655Z,11.60
2023-05-15T11:09:28.114Z,11.80
2023-05-15T11:12:00.435Z,13.50
2023-05-15T11:14:52.062Z,18.70
2023-05-15T11:17:20.149Z,20.60
2023-05-15T11:19:51.471Z,15.30
2023-05-15T11:22:27.194Z,13.70
2023-05-15T11:25:16.668Z,14.80
2023-05-15T11:27:46.278Z,12.00
2023-05-15T11:30:22.245Z,12.50
2023-05-15T11:32:58.522Z,13.80
2023-05-15T11:35:35.498Z,14.50
2023-05-15T11:38:05.151Z,10.30
2023-05-15T11:40:44.668Z,13.70
2023-05-15T11:43:32.347Z,13.50
2023-05-15T11:46:05.697Z,14.30
2023-05-15T11:48:34.559Z,12.60
2023-05-15T11:51:04.305Z,13.40
2023-05-15T11:53:33.424Z,13.80
2023-05-15T11:56:01.356Z,16.00
2023-05-15T11:58:29.377Z,19.20
2023-05-15T12:00:57.905Z,14.00
2023-05-15T12:03:32.241Z,11.00
2023-05-15T12:06:02.211Z,11.50
2023-05-15T12:08:35.156Z,17.00
2023-05-15T12:11:04.327Z,11.70
2023-05-15T12:13:33.266Z,12.90
2023-05-15T12:16:05.179Z,15.10
2023-05-15T12:18:36.614Z,18.10
2023-05-15T12:21:06.086Z,23.80
2023-05-15T12:23:34.194Z,22.20
2023-05-15T12:26:03.832Z,16.40
2023-05-15T12:28:35.199Z,18.90
2023-05-15T12:31:04.141Z,29.80
2023-05-15T12:33:32.228Z,23.30
2023-05-15T12:36:01.844Z,16.90
2023-05-15T12:38:31.117Z,18.00
2023-05-15T12:40:59.337Z,12.70
2023-05-15T12:43:27.408Z,14.60
2023-05-15T12:45:56.504Z,13.20
2023-05-15T12:48:30.737Z,12.70
2023-05-15T12:51:06.520Z,24.20
2023-05-15T12:53:35.407Z,13.90
2023-05-15T12:56:04.891Z,12.50
2023-05-15T12:58:33.744Z,13.40
2023-05-15T13:01:04.778Z,11.30
2023-05-15T13:03:33.376Z,13.70
2023-05-15T13:06:07.236Z,12.40
2023-05-15T13:08:42.044Z,14.50
2023-05-15T13:11:14.518Z,9.60
2023-05-15T13:13:45.032Z,18.70
2023-05-15T13:16:19.977Z,12.80
2023-05-15T13:18:49.152Z,13.40
2023-05-15T13:21:17.880Z,11.60
2023-05-15T13:23:45.838Z,11.80
2023-05-15T13:26:13.804Z,11.80
2023-05-15T13:28:41.726Z,16.70
2023-05-15T13:31:09.982Z,17.80
2023-05-15T13:33:37.989Z,14.70
2023-05-15T13:36:06.316Z,17.70
2023-05-15T13:38:34.164Z,17.30
2023-05-15T13:41:02.090Z,14.90
2023-05-15T13:43:30.144Z,12.70
2023-05-15T13:45:58.140Z,14.00
2023-05-15T13:48:26.078Z,11.70
2023-05-15T13:50:53.981Z,14.80
2023-05-15T13:53:24.176Z,16.40
2023-05-15T13:55:52.033Z,17.70
2023-05-15T13:58:20.106Z,11.70
2023-05-15T14:00:51.317Z,14.90
2023-05-15T14:03:21.116Z,12.30
2023-05-15T14:05:49.212Z,13.50
2023-05-15T14:08:17.464Z,10.40
2023-05-15T14:10:45.322Z,12.50
2023-05-15T14:13:13.286Z,14.00
2023-05-15T14:15:41.084Z,11.10
2023-05-15T14:18:09.217Z,13.60
2023-05-15T14:20:37.044Z,10.30
2023-05-15T14:23:04.970Z,12.40
2023-05-15T14:25:32.778Z,13.40
2023-05-15T14:28:00.614Z,13.50
2023-05-15T14:30:28.425Z,11.20
2023-05-15T14:32:56.400Z,13.50
2023-05-15T14:35:24.197Z,10.80
2023-05-15T14:37:52.188Z,14.00
2023-05-15T14:40:20.047Z,15.60
2023-05-15T14:42:47.819Z,13.80
2023-05-15T14:45:15.741Z,16.20
2023-05-15T14:47:43.789Z,13.20
2023-05-15T14:50:11.722Z,13.10
2023-05-15T14:52:39.730Z,15.90
2023-05-15T14:55:09.794Z,16.10
2023-05-15T14:57:38.654Z,13.80
2023-05-15T15:00:07.267Z,12.40
2023-05-15T15:02:35.687Z,14.10
2023-05-15T15:05:04.687Z,11.20
2023-05-15T15:07:58.575Z,15.00
2023-05-15T15:10:27.550Z,11.30
2023-05-15T15:12:56.101Z,16.30
2023-05-15T15:15:24.704Z,15.70
2023-05-15T15:17:53.184Z,13.70
2023-05-15T15:20:21.642Z,17.50
2023-05-15T15:22:49.498Z,16.20
2023-05-15T15:25:17.661Z,14.60
2023-05-15T15:27:46.427Z,13.90
2023-05-15T15:30:15.824Z,14.60
2023-05-15T15:32:45.473Z,16.30
2023-05-15T15:35:13.558Z,19.20
2023-05-15T15:37:41.444Z,14.30
2023-05-15T15:40:09.830Z,19.30
2023-05-15T15:42:38.079Z,17.50
2023-05-15T15:45:07.288Z,16.90
2023-05-15T15:47:35.703Z,23.00
2023-05-15T15:50:03.823Z,21.20
2023-05-15T15:52:31.589Z,18.70
2023-05-15T15:54:59.426Z,17.90
2023-05-15T15:57:28.080Z,15.10
2023-05-15T15:59:56.057Z,13.20
2023-05-15T16:02:24.111Z,17.20
2023-05-15T16:04:51.956Z,19.00
2023-05-15T16:07:20.254Z,17.80
2023-05-15T16:09:56.854Z,16.50
2023-05-15T16:12:36.072Z,19.00
2023-05-15T16:15:17.452Z,15.70
2023-05-15T16:17:54.131Z,15.80
2023-05-15T16:20:23.836Z,17.90
2023-05-15T16:22:52.128Z,22.00
2023-05-15T16:25:20.146Z,16.30
2023-05-15T16:27:48.040Z,17.00
2023-05-15T16:30:15.927Z,23.40
2023-05-15T16:32:45.024Z,18.60
2023-05-15T16:35:13.214Z,16.10
2023-05-15T16:37:41.405Z,24.60
2023-05-15T16:40:09.951Z,16.20
2023-05-15T16:42:38.226Z,17.00
2023-05-15T16:45:07.264Z,14.70
2023-05-15T16:47:38.361Z,14.80
2023-05-15T16:50:07.297Z,15.60
2023-05-15T16:52:35.940Z,16.60
2023-05-15T16:55:04.126Z,14.80
2023-05-15T16:57:32.037Z,13.10
2023-05-15T16:59:59.890Z,12.10
2023-05-15T17:02:27.743Z,14.70
2023-05-15T17:04:55.929Z,16.50
2023-05-15T17:07:23.891Z,13.20
2023-05-15T17:09:52.296Z,13.50
2023-05-15T17:12:20.584Z,16.00
2023-05-15T17:14:48.573Z,13.20
2023-05-15T17:17:16.754Z,13.90
2023-05-15T17:19:45.363Z,15.10
2023-05-15T17:22:13.296Z,15.90
2023-05-15T17:24:50.719Z,18.70
2023-05-15T17:27:20.514Z,22.10
2023-05-15T17:29:48.791Z,25.80
2023-05-15T17:32:17.824Z,20.40
2023-05-15T17:34:46.933Z,26.70
2023-05-15T17:37:14.874Z,19.20
2023-05-15T17:39:43.170Z,24.50
2023-05-15T17:42:11.170Z,19.10
2023-05-15T17:44:39.295Z,18.00
2023-05-15T17:47:08.554Z,20.50
2023-05-15T17:49:37.818Z,18.80
2023-05-15T17:52:08.006Z,26.70
2023-05-15T17:54:35.970Z,19.90
2023-05-15T17:57:04.019Z,17.50
2023-05-15T17:59:31.956Z,20.70
2023-05-15T18:02:00.671Z,22.80
2023-05-15T18:04:28.714Z,24.20
2023-05-15T18:06:56.811Z,24.00
2023-05-15T18:09:24.867Z,25.60
2023-05-15T18:11:55.796Z,24.60
2023-05-15T18:16:51.640Z,27.20
2023-05-15T18:19:19.943Z,30.20
2023-05-15T18:21:48.238Z,19.80
2023-05-15T18:24:16.148Z,18.40
2023-05-15T18:26:44.371Z,17.40
2023-05-15T18:29:14.156Z,18.00
2023-05-15T18:31:42.234Z,18.00
2023-05-15T18:34:10.057Z,23.70
2023-05-15T18:36:37.971Z,23.40
2023-05-15T18:39:06.274Z,24.00
2023-05-15T18:41:34.078Z,24.30
2023-05-15T18:44:01.886Z,19.30
2023-05-15T18:46:31.790Z,21.90
2023-05-15T18:49:00.240Z,29.70
2023-05-15T18:51:28.231Z,29.40
2023-05-15T18:53:56.168Z,26.30
2023-05-15T18:56:25.081Z,26.70
2023-05-15T18:58:54.186Z,22.70
2023-05-15T19:01:22.311Z,26.50
2023-05-15T19:03:50.437Z,26.40
2023-05-15T19:06:20.187Z,20.10
2023-05-15T19:08:48.668Z,21.00
2023-05-15T19:11:17.373Z,19.80
2023-05-15T19:13:45.251Z,20.50
2023-05-15T19:16:13.243Z,21.40
2023-05-15T19:18:41.191Z,19.90
2023-05-15T19:21:09.198Z,22.00
2023-05-15T19:23:37.140Z,21.60
2023-05-15T19:26:05.154Z,23.60
2023-05-15T19:28:33.206Z,19.70
2023-05-15T19:31:01.134Z,19.30
2023-05-15T19:33:29.499Z,15.70
2023-05-15T19:35:57.470Z,14.10
2023-05-15T19:38:25.610Z,13.10
2023-05-15T19:40:53.716Z,13.80
2023-05-15T19:43:21.690Z,15.70
2023-05-15T19:45:49.539Z,18.90
2023-05-15T19:48:17.424Z,19.90
2023-05-15T19:50:46.245Z,19.30
2023-05-15T19:53:14.229Z,20.20
2023-05-15T19:55:42.223Z,19.70
2023-05-15T19:58:10.118Z,21.70
2023-05-15T20:00:37.983Z,22.20
2023-05-15T20:03:06.102Z,22.30
2023-05-15T20:05:34.220Z,22.20
2023-05-15T20:08:02.033Z,19.90
2023-05-15T20:10:29.895Z,24.40
2023-05-15T20:12:57.840Z,22.30
2023-05-15T20:15:32.646Z,21.30
2023-05-15T20:18:03.948Z,20.10
2023-05-15T20:20:32.492Z,18.90
2023-05-15T20:23:00.192Z,20.20
2023-05-15T20:25:29.800Z,18.90
2023-05-15T20:27:58.695Z,22.00
2023-05-15T20:30:28.910Z,18.40
2023-05-15T20:32:57.007Z,17.50
2023-05-15T20:35:25.509Z,19.00
2023-05-15T20:37:57.509Z,16.90
2023-05-15T20:40:26.395Z,19.40
2023-05-15T20:42:56.887Z,19.10
2023-05-15T20:45:27.049Z,19.50
2023-05-15T20:47:55.296Z,22.30
2023-05-15T20:50:26.094Z,19.20
2023-05-15T20:52:55.030Z,19.60
2023-05-15T20:55:23.059Z,23.20
2023-05-15T20:57:50.881Z,21.20
2023-05-15T21:00:18.672Z,21.40
2023-05-15T21:02:55.487Z,19.00
2023-05-15T21:05:41.482Z,17.00
2023-05-15T21:08:09.674Z,18.20
2023-05-15T21:10:38.533Z,21.10
2023-05-15T21:13:06.266Z,18.30
2023-05-15T21:15:34.235Z,19.60
2023-05-15T21:18:02.242Z,21.40
2023-05-15T21:20:30.144Z,17.80
2023-05-15T21:22:57.992Z,18.80
2023-05-15T21:25:25.993Z,21.30
2023-05-15T21:27:57.724Z,20.10
2023-05-15T21:30:25.635Z,20.90
2023-05-15T21:32:53.700Z,18.60
2023-05-15T21:35:21.672Z,18.20
2023-05-15T21:37:49.494Z,19.70
2023-05-15T21:40:18.504Z,18.30
2023-05-15T21:42:46.382Z,17.70
2023-05-15T21:45:14.392Z,19.90
2023-05-15T21:47:42.236Z,20.40
2023-05-15T21:50:10.488Z,18.50
2023-05-15T21:52:38.399Z,18.00
2023-05-15T21:55:07.266Z,20.00
2023-05-15T21:57:35.247Z,15.90
2023-05-15T22:00:06.911Z,19.30
2023-05-15T22:02:35.170Z,20.10
2023-05-15T22:05:03.936Z,17.00
2023-05-15T22:07:31.807Z,19.60
2023-05-15T22:09:59.672Z,20.20
2023-05-15T22:12:45.862Z,18.20
2023-05-15T22:15:15.053Z,19.70
2023-05-15T22:17:43.073Z,18.80
2023-05-15T22:20:13.328Z,18.60
2023-05-15T22:22:42.481Z,18.40
2023-05-15T22:25:10.471Z,19.80
2023-05-15T22:27:38.472Z,18.80
2023-05-15T22:30:07.293Z,22.40
2023-05-15T22:32:35.251Z,18.50
2023-05-15T22:35:03.654Z,17.70
2023-05-15T22:37:31.613Z,19.50
2023-05-15T22:39:59.992Z,20.00
2023-05-15T22:42:28.200Z,20.90
2023-05-15T22:44:57.828Z,22.50
2023-05-15T22:47:28.326Z,21.90
2023-05-15T22:49:56.914Z,20.40
2023-05-15T22:52:25.465Z,22.90
2023-05-15T22:55:17.295Z,21.30
2023-05-15T22:57:45.113Z,20.60
2023-05-15T23:00:13.771Z,20.70
2023-05-15T23:02:43.468Z,21.70
2023-05-15T23:05:12.670Z,20.00
2023-05-15T23:07:46.586Z,20.50
2023-05-15T23:10:15.978Z,22.50
2023-05-15T23:12:43.830Z,20.40
2023-05-15T23:15:11.997Z,21.00
2023-05-15T23:17:40.386Z,17.30
2023-05-15T23:20:10.624Z,21.40
2023-05-15T23:22:39.266Z,20.10
2023-05-15T23:25:07.581Z,17.70
2023-05-15T23:27:35.608Z,21.40
2023-05-15T23:30:05.090Z,22.40
2023-05-15T23:32:33.450Z,20.10
2023-05-15T23:35:01.393Z,18.60
2023-05-15T23:37:29.275Z,18.90
2023-05-15T23:39:57.243Z,20.60
2023-05-15T23:42:25.311Z,18.80
2023-05-15T23:44:53.113Z,17.20
2023-05-15T23:47:21.472Z,19.20
2023-05-15T23:49:49.237Z,16.50
2023-05-15T23:52:17.193Z,19.60
2023-05-15T23:54:45.153Z,18.90
2023-05-15T23:57:13.088Z,18.40
2023-05-15T23:59:41.122Z,17.70
